createdAt,value
2023-05-20T00:02:29.265Z,11.60
2023-05-20T00:04:57.535Z,9.88
2023-05-20T00:07:26.202Z,14.25
2023-05-20T00:09:54.317Z,10.45
2023-05-20T00:12:22.301Z,9.38
2023-05-20T00:14:50.271Z,17.00
2023-05-20T00:17:18.420Z,10.82
2023-05-20T00:19:47.733Z,11.10
2023-05-20T00:22:15.676Z,11.23
2023-05-20T00:24:43.658Z,10.85
2023-05-20T00:27:11.612Z,9.98
2023-05-20T00:29:39.584Z,10.60
2023-05-20T00:32:08.338Z,11.20
2023-05-20T00:34:36.363Z,11.70
2023-05-20T00:37:06.205Z,11.77
2023-05-20T00:39:34.184Z,11.73
2023-05-20T00:42:03.592Z,10.80
2023-05-20T00:44:31.537Z,12.50
2023-05-20T00:46:59.795Z,9.82
2023-05-20T00:49:27.887Z,11.95
2023-05-20T00:51:56.397Z,12.98
2023-05-20T00:54:25.751Z,10.93
2023-05-20T00:56:54.220Z,10.48
2023-05-20T00:59:22.173Z,10.98
2023-05-20T01:01:50.854Z,10.05
2023-05-20T01:04:19.056Z,12.52
2023-05-20T01:06:47.924Z,9.90
2023-05-20T01:09:16.042Z,9.35
2023-05-20T01:11:53.005Z,13.43
2023-05-20T01:14:25.218Z,11.85
2023-05-20T01:16:58.450Z,10.38
2023-05-20T01:19:36.544Z,16.42
2023-05-20T01:22:08.048Z,11.48
2023-05-20T01:24:37.611Z,13.27
2023-05-20T01:27:10.336Z,12.98
2023-05-20T01:29:38.751Z,11.38
2023-05-20T01:32:10.003Z,15.73
2023-05-20T01:34:40.093Z,13.57
2023-05-20T01:37:09.426Z,12.65
2023-05-20T01:39:41.993Z,12.02
2023-05-20T01:42:11.546Z,13.45
2023-05-20T01:44:39.665Z,12.52
2023-05-20T01:47:08.596Z,13.77
2023-05-20T01:49:36.559Z,11.57
2023-05-20T01:52:05.148Z,11.95
2023-05-20T01:54:33.115Z,10.75
2023-05-20T01:57:03.079Z,13.07
2023-05-20T01:59:31.134Z,12.85
2023-05-20T02:01:59.148Z,10.05
2023-05-20T02:04:27.341Z,11.60
2023-05-20T02:06:55.848Z,9.63
2023-05-20T02:09:24.673Z,11.23
2023-05-20T02:11:53.750Z,13.05
2023-05-20T02:14:23.140Z,11.70
2023-05-20T02:16:51.183Z,11.95
2023-05-20T02:19:23.810Z,10.05
2023-05-20T02:21:52.130Z,14.30
2023-05-20T02:24:21.265Z,8.75
2023-05-20T02:26:51.257Z,10.95
2023-05-20T02:29:20.107Z,16.88
2023-05-20T02:31:49.704Z,10.07
2023-05-20T02:34:18.817Z,12.40
2023-05-20T02:36:46.787Z,10.48
2023-05-20T02:39:15.627Z,10.57
2023-05-20T02:41:43.600Z,11.50
2023-05-20T02:44:11.605Z,9.00
2023-05-20T02:46:39.617Z,18.80
2023-05-20T02:49:08.971Z,11.57
2023-05-20T02:51:37.613Z,11.90
2023-05-20T02:54:05.690Z,9.15
2023-05-20T02:56:34.370Z,9.32
2023-05-20T02:59:03.719Z,8.95
2023-05-20T03:01:33.869Z,8.05
2023-05-20T03:04:02.115Z,10.65
2023-05-20T03:06:31.919Z,11.32
2023-05-20T03:08:59.986Z,12.70
2023-05-20T03:11:27.950Z,11.48
2023-05-20T03:13:55.887Z,10.68
2023-05-20T03:16:25.267Z,12.95
2023-05-20T03:18:54.625Z,14.52
2023-05-20T03:21:24.281Z,14.73
2023-05-20T03:23:53.781Z,12.40
2023-05-20T03:26:23.501Z,11.65
2023-05-20T03:28:52.020Z,10.68
2023-05-20T03:31:20.408Z,10.73
2023-05-20T03:33:48.498Z,13.35
2023-05-20T03:36:16.539Z,13.77
2023-05-20T03:38:44.503Z,10.80
2023-05-20T03:41:13.878Z,11.02
2023-05-20T03:43:42.068Z,15.02
2023-05-20T03:46:09.998Z,11.52
2023-05-20T03:48:38.020Z,13.20
2023-05-20T03:51:06.051Z,11.75
2023-05-20T03:53:34.652Z,13.23
2023-05-20T03:56:02.980Z,12.45
2023-05-20T03:58:33.230Z,11.23
2023-05-20T04:01:01.186Z,17.10
2023-05-20T04:03:30.216Z,9.48
2023-05-20T04:05:58.407Z,10.02
2023-05-20T04:08:26.944Z,9.23
2023-05-20T04:10:57.403Z,10.30
2023-05-20T04:13:26.470Z,8.90
2023-05-20T04:15:56.016Z,10.05
2023-05-20T04:18:24.243Z,12.23
2023-05-20T04:20:56.919Z,9.23
2023-05-20T04:23:25.409Z,11.18
2023-05-20T04:25:55.212Z,15.32
2023-05-20T04:28:28.178Z,9.43
2023-05-20T04:31:02.821Z,10.48
2023-05-20T04:33:33.038Z,13.88
2023-05-20T04:36:03.167Z,14.15
2023-05-20T04:38:32.430Z,12.73
2023-05-20T04:41:02.177Z,10.32
2023-05-20T04:43:31.304Z,10.93
2023-05-20T04:46:01.452Z,14.70
2023-05-20T04:48:29.427Z,11.52
2023-05-20T04:50:58.024Z,14.48
2023-05-20T04:53:26.364Z,14.63
2023-05-20T04:55:56.990Z,11.35
2023-05-20T04:58:25.535Z,8.70
2023-05-20T05:00:54.379Z,10.05
2023-05-20T05:03:23.790Z,12.60
2023-05-20T05:05:51.769Z,15.07
2023-05-20T05:08:20.156Z,12.70
2023-05-20T05:10:51.943Z,13.02
2023-05-20T05:13:20.008Z,14.27
2023-05-20T05:15:49.614Z,10.00
2023-05-20T05:18:19.447Z,12.15
2023-05-20T05:20:48.777Z,12.30
2023-05-20T05:23:16.706Z,10.77
2023-05-20T05:25:44.722Z,10.25
2023-05-20T05:28:13.018Z,10.52
2023-05-20T05:30:40.964Z,11.05
2023-05-20T05:33:08.904Z,9.88
2023-05-20T05:35:36.881Z,10.70
2023-05-20T05:38:06.197Z,9.13
2023-05-20T05:40:37.319Z,12.85
2023-05-20T05:43:05.516Z,11.73
2023-05-20T05:45:34.649Z,10.60
2023-05-20T05:48:02.855Z,14.57
2023-05-20T05:50:31.391Z,11.70
2023-05-20T05:52:59.327Z,10.18
2023-05-20T05:55:28.904Z,11.65
2023-05-20T05:57:56.903Z,11.85
2023-05-20T06:00:24.965Z,17.45
2023-05-20T06:02:53.226Z,15.32
2023-05-20T06:05:32.667Z,12.48
2023-05-20T06:08:00.900Z,14.15
2023-05-20T06:10:30.316Z,19.13
2023-05-20T06:12:58.308Z,14.13
2023-05-20T06:15:27.324Z,14.63
2023-05-20T06:17:55.928Z,16.38
2023-05-20T06:20:24.201Z,15.15
2023-05-20T06:22:52.377Z,16.63
2023-05-20T06:25:23.158Z,14.00
2023-05-20T06:27:53.196Z,18.40
2023-05-20T06:30:22.692Z,13.68
2023-05-20T06:32:50.920Z,16.50
2023-05-20T06:35:19.168Z,15.38
2023-05-20T06:37:47.222Z,17.80
2023-05-20T06:40:15.415Z,14.18
2023-05-20T06:42:44.266Z,14.60
2023-05-20T06:45:14.095Z,15.05
2023-05-20T06:47:44.595Z,14.82
2023-05-20T06:50:13.180Z,18.58
2023-05-20T06:52:41.353Z,14.35
2023-05-20T06:55:10.934Z,15.60
2023-05-20T06:57:38.945Z,13.07
2023-05-20T07:00:08.325Z,15.38
2023-05-20T07:02:43.177Z,13.98
2023-05-20T07:05:13.757Z,16.77
2023-05-20T07:07:41.694Z,14.20
2023-05-20T07:10:10.782Z,15.85
2023-05-20T07:12:38.843Z,13.80
2023-05-20T07:15:07.781Z,12.48
2023-05-20T07:17:36.444Z,20.38
2023-05-20T07:20:08.240Z,14.80
2023-05-20T07:22:37.143Z,12.88
2023-05-20T07:25:15.894Z,10.23
2023-05-20T07:27:44.004Z,12.70
2023-05-20T07:30:12.253Z,13.77
2023-05-20T07:32:42.361Z,11.57
2023-05-20T07:35:11.868Z,11.90
2023-05-20T07:37:39.820Z,13.90
2023-05-20T07:40:09.766Z,15.88
2023-05-20T07:42:39.746Z,12.02
2023-05-20T07:45:08.877Z,13.32
2023-05-20T07:47:37.059Z,13.43
2023-05-20T07:50:05.340Z,10.85
2023-05-20T07:52:51.808Z,11.43
2023-05-20T07:55:24.748Z,11.35
2023-05-20T07:57:53.251Z,12.18
2023-05-20T08:00:22.644Z,10.90
2023-05-20T08:02:50.836Z,10.35
2023-05-20T08:05:25.750Z,13.95
2023-05-20T08:07:55.196Z,14.32
2023-05-20T08:10:26.025Z,11.27
2023-05-20T08:12:55.145Z,13.90
2023-05-20T08:15:23.157Z,10.45
2023-05-20T08:17:51.344Z,9.88
2023-05-20T08:20:19.472Z,14.50
2023-05-20T08:22:47.465Z,12.25
2023-05-20T08:25:16.888Z,10.32
2023-05-20T08:27:45.830Z,12.70
2023-05-20T08:30:14.297Z,11.65
2023-05-20T08:32:42.818Z,11.43
2023-05-20T08:35:12.990Z,9.00
2023-05-20T08:37:41.048Z,10.45
2023-05-20T08:40:11.877Z,10.50
2023-05-20T08:42:44.217Z,10.27
2023-05-20T08:45:14.273Z,9.02
2023-05-20T08:47:44.275Z,13.45
2023-05-20T08:50:13.757Z,11.55
2023-05-20T08:52:44.597Z,7.47
2023-05-20T08:55:17.510Z,9.60
2023-05-20T08:57:47.241Z,8.57
2023-05-20T09:00:17.179Z,9.60
2023-05-20T09:02:46.921Z,10.88
2023-05-20T09:05:15.117Z,8.00
2023-05-20T09:07:43.799Z,8.15
2023-05-20T09:10:12.083Z,7.82
2023-05-20T09:12:40.090Z,11.27
2023-05-20T09:15:10.818Z,8.90
2023-05-20T09:17:39.655Z,8.13
2023-05-20T09:20:09.888Z,10.15
2023-05-20T09:22:39.800Z,8.07
2023-05-20T09:25:09.531Z,7.93
2023-05-20T09:27:37.443Z,10.13
2023-05-20T09:30:12.731Z,8.20
2023-05-20T09:32:41.204Z,10.20
2023-05-20T09:35:09.809Z,10.93
2023-05-20T09:37:38.693Z,9.40
2023-05-20T09:40:10.274Z,9.18
2023-05-20T09:42:43.442Z,13.90
2023-05-20T09:45:13.399Z,10.93
2023-05-20T09:47:42.680Z,11.65
2023-05-20T09:50:11.054Z,9.85
2023-05-20T09:52:39.966Z,8.38
2023-05-20T09:55:10.487Z,10.73
2023-05-20T09:57:39.204Z,7.53
2023-05-20T10:00:10.298Z,12.65
2023-05-20T10:02:43.857Z,8.93
2023-05-20T10:05:16.713Z,8.90
2023-05-20T10:08:15.822Z,11.55
2023-05-20T10:10:49.526Z,8.00
2023-05-20T10:13:33.420Z,6.30
2023-05-20T10:16:11.339Z,8.35
2023-05-20T10:18:53.062Z,8.48
2023-05-20T10:21:24.592Z,8.13
2023-05-20T10:23:53.295Z,9.77
2023-05-20T10:26:21.895Z,9.88
2023-05-20T10:28:50.287Z,11.00
2023-05-20T10:31:19.688Z,8.32
2023-05-20T10:33:49.780Z,8.48
2023-05-20T10:36:26.314Z,7.10
2023-05-20T10:38:55.998Z,7.60
2023-05-20T10:41:26.563Z,8.55
2023-05-20T10:44:03.133Z,6.72
2023-05-20T10:46:40.150Z,7.97
2023-05-20T10:49:24.006Z,6.15
2023-05-20T10:51:55.621Z,8.50
2023-05-20T10:54:24.176Z,8.45
2023-05-20T10:56:53.623Z,6.22
2023-05-20T10:59:22.776Z,8.57
2023-05-20T11:01:51.632Z,8.40
2023-05-20T11:04:20.954Z,8.00
2023-05-20T11:06:54.211Z,8.57
2023-05-20T11:09:22.730Z,10.48
2023-05-20T11:11:51.500Z,8.45
2023-05-20T11:14:20.283Z,8.88
2023-05-20T11:16:57.954Z,7.03
2023-05-20T11:19:26.677Z,8.30
2023-05-20T11:21:55.114Z,9.40
2023-05-20T11:24:29.192Z,7.60
2023-05-20T11:26:57.661Z,7.70
2023-05-20T11:29:29.130Z,11.55
2023-05-20T11:31:58.798Z,6.32
2023-05-20T11:34:28.211Z,9.18
2023-05-20T11:36:58.501Z,8.00
2023-05-20T11:39:30.298Z,9.93
2023-05-20T11:41:58.943Z,7.80
2023-05-20T11:44:27.166Z,11.05
2023-05-20T11:47:02.649Z,6.45
2023-05-20T11:49:31.181Z,5.35
2023-05-20T11:51:59.293Z,7.78
2023-05-20T11:54:27.491Z,9.05
2023-05-20T11:56:56.507Z,7.15
2023-05-20T11:59:25.922Z,6.28
2023-05-20T12:01:53.998Z,6.90
2023-05-20T12:04:23.553Z,5.68
2023-05-20T12:06:53.202Z,6.47
2023-05-20T12:09:21.249Z,8.35
2023-05-20T12:11:49.361Z,7.35
2023-05-20T12:14:17.290Z,8.35
2023-05-20T12:16:45.290Z,7.70
2023-05-20T12:19:13.300Z,7.65
2023-05-20T12:21:42.738Z,7.95
2023-05-20T12:24:11.150Z,7.07
2023-05-20T12:26:39.126Z,9.90
2023-05-20T12:29:07.259Z,7.50
2023-05-20T12:31:35.385Z,8.63
2023-05-20T12:34:03.670Z,7.10
2023-05-20T12:36:31.742Z,8.05
2023-05-20T12:39:01.107Z,5.25
2023-05-20T12:41:29.044Z,6.47
2023-05-20T12:43:56.998Z,7.05
2023-05-20T12:46:25.118Z,8.68
2023-05-20T12:48:53.259Z,7.72
2023-05-20T12:51:21.236Z,5.53
2023-05-20T12:53:49.364Z,8.15
2023-05-20T12:56:19.366Z,9.43
2023-05-20T12:58:47.360Z,8.32
2023-05-20T13:01:15.396Z,6.65
2023-05-20T13:03:43.413Z,7.95
2023-05-20T13:06:11.487Z,7.53
2023-05-20T13:08:39.451Z,6.57
2023-05-20T13:11:07.361Z,8.77
2023-05-20T13:13:36.666Z,7.78
2023-05-20T13:16:05.015Z,6.70
2023-05-20T13:18:32.912Z,6.90
2023-05-20T13:21:00.872Z,5.03
2023-05-20T13:23:28.801Z,8.65
2023-05-20T13:25:56.816Z,8.32
2023-05-20T13:28:24.749Z,8.30
2023-05-20T13:30:54.126Z,7.13
2023-05-20T13:33:24.090Z,7.03
2023-05-20T13:35:52.188Z,6.95
2023-05-20T13:38:20.141Z,4.25
2023-05-20T13:40:49.010Z,7.47
2023-05-20T13:43:17.020Z,8.75
2023-05-20T13:45:45.271Z,5.28
2023-05-20T13:48:14.600Z,4.65
2023-05-20T13:50:42.629Z,5.53
2023-05-20T13:53:12.524Z,4.93
2023-05-20T13:55:40.830Z,7.50
2023-05-20T13:58:10.041Z,5.43
2023-05-20T14:00:38.796Z,5.63
2023-05-20T14:03:09.118Z,7.13
2023-05-20T14:05:38.744Z,29.58
2023-05-20T14:08:06.800Z,13.18
2023-05-20T14:10:34.902Z,18.92
2023-05-20T14:13:03.110Z,31.98
2023-05-20T14:15:31.511Z,48.47
2023-05-20T14:17:59.545Z,15.15
2023-05-20T14:20:27.510Z,8.68
2023-05-20T14:22:56.832Z,18.88
2023-05-20T14:25:24.777Z,12.10
2023-05-20T14:27:52.692Z,30.42
2023-05-20T14:30:20.599Z,17.67
2023-05-20T14:32:48.620Z,58.13
2023-05-20T14:35:18.239Z,41.25
2023-05-20T14:37:46.416Z,20.33
2023-05-20T14:40:16.605Z,44.15
2023-05-20T14:42:44.532Z,10.18
2023-05-20T14:45:12.595Z,56.08
2023-05-20T14:47:41.017Z,76.03
2023-05-20T14:50:09.584Z,40.38
2023-05-20T14:52:37.526Z,69.25
2023-05-20T14:55:06.294Z,47.90
2023-05-20T14:57:35.676Z,50.15
2023-05-20T15:00:04.277Z,66.75
2023-05-20T15:02:32.314Z,65.47
2023-05-20T15:05:00.294Z,68.28
2023-05-20T15:07:28.253Z,45.75
2023-05-20T15:09:56.412Z,55.15
2023-05-20T15:12:24.487Z,67.90
2023-05-20T15:14:53.751Z,67.18
2023-05-20T15:17:22.009Z,77.28
2023-05-20T15:19:49.983Z,25.85
2023-05-20T15:22:17.953Z,36.65
2023-05-20T15:24:45.862Z,119.30
2023-05-20T15:27:13.830Z,82.75
2023-05-20T15:29:41.780Z,95.97
2023-05-20T15:32:11.302Z,78.85
2023-05-20T15:34:39.249Z,37.33
2023-05-20T15:37:07.281Z,70.43
2023-05-20T15:39:38.455Z,92.82
2023-05-20T15:42:06.574Z,38.97
2023-05-20T15:44:36.098Z,86.22
2023-05-20T15:47:05.782Z,49.85
2023-05-20T15:49:35.174Z,29.45
2023-05-20T15:52:04.218Z,40.80
2023-05-20T15:54:32.857Z,45.05
2023-05-20T15:57:01.106Z,20.75
2023-05-20T15:59:29.078Z,38.42
2023-05-20T16:01:57.066Z,60.05
2023-05-20T16:04:25.210Z,12.95
2023-05-20T16:06:54.647Z,41.22
2023-05-20T16:09:22.671Z,33.08
2023-05-20T16:11:50.676Z,50.42
2023-05-20T16:14:18.591Z,29.10
2023-05-20T16:16:46.658Z,41.20
2023-05-20T16:19:14.724Z,53.45
2023-05-20T16:21:42.721Z,40.60
2023-05-20T16:24:12.477Z,56.25
2023-05-20T16:26:40.544Z,64.78
2023-05-20T16:29:08.542Z,79.00
2023-05-20T16:31:36.553Z,65.97
2023-05-20T16:34:04.980Z,47.58
2023-05-20T16:36:32.937Z,59.83
2023-05-20T16:39:01.043Z,69.63
2023-05-20T16:41:30.738Z,66.68
2023-05-20T16:43:58.690Z,66.18
2023-05-20T16:46:26.646Z,47.92
2023-05-20T16:48:54.593Z,53.55
2023-05-20T16:51:22.754Z,13.93
2023-05-20T16:53:50.657Z,38.90
2023-05-20T16:56:18.626Z,17.23
2023-05-20T16:58:48.526Z,16.58
2023-05-20T17:01:17.428Z,38.53
2023-05-20T17:03:45.456Z,102.85
2023-05-20T17:06:13.620Z,28.83
2023-05-20T17:08:41.665Z,37.08
2023-05-20T17:11:09.594Z,20.05
2023-05-20T17:13:37.585Z,19.48
2023-05-20T17:16:09.725Z,13.07
2023-05-20T17:18:38.034Z,8.48
2023-05-20T17:21:06.382Z,10.88
2023-05-20T17:23:34.362Z,20.02
2023-05-20T17:26:02.378Z,13.98
2023-05-20T17:28:30.715Z,15.27
2023-05-20T17:30:58.762Z,16.85
2023-05-20T17:33:28.095Z,16.40
2023-05-20T17:35:56.057Z,26.77
2023-05-20T17:38:26.264Z,20.05
2023-05-20T17:40:54.822Z,28.92
2023-05-20T17:43:25.144Z,32.15
2023-05-20T17:45:53.349Z,14.40
2023-05-20T17:48:21.388Z,14.80
2023-05-20T17:50:50.838Z,17.05
2023-05-20T17:53:21.096Z,15.48
2023-05-20T17:55:49.931Z,14.73
2023-05-20T17:58:17.995Z,11.80
2023-05-20T18:00:45.963Z,19.67
2023-05-20T18:03:14.199Z,12.30
2023-05-20T18:05:42.404Z,10.93
2023-05-20T18:08:11.778Z,11.88
2023-05-20T18:10:40.059Z,10.02
2023-05-20T18:13:08.367Z,9.40
2023-05-20T18:15:36.334Z,8.60
2023-05-20T18:18:04.438Z,12.15
2023-05-20T18:20:32.465Z,11.18
2023-05-20T18:23:00.498Z,11.80
2023-05-20T18:25:29.897Z,9.90
2023-05-20T18:27:57.856Z,10.35
2023-05-20T18:30:26.158Z,10.57
2023-05-20T18:32:54.414Z,8.73
2023-05-20T18:35:22.626Z,9.90
2023-05-20T18:37:51.464Z,10.77
2023-05-20T18:40:20.694Z,10.82
2023-05-20T18:42:50.060Z,10.25
2023-05-20T18:45:18.267Z,12.68
2023-05-20T18:47:46.291Z,10.48
2023-05-20T18:50:14.320Z,9.40
2023-05-20T18:52:42.252Z,10.70
2023-05-20T18:55:10.512Z,12.48
2023-05-20T18:57:39.048Z,11.00
2023-05-20T19:00:12.296Z,10.38
2023-05-20T19:02:40.776Z,10.52
2023-05-20T19:05:10.637Z,9.38
2023-05-20T19:07:38.882Z,13.85
2023-05-20T19:10:08.019Z,11.23
2023-05-20T19:12:36.393Z,12.50
2023-05-20T19:15:05.177Z,10.80
2023-05-20T19:17:34.744Z,11.10
2023-05-20T19:20:03.137Z,14.07
2023-05-20T19:22:31.110Z,12.10
2023-05-20T19:24:59.155Z,12.23
2023-05-20T19:27:27.189Z,12.60
2023-05-20T19:29:55.226Z,11.82
2023-05-20T19:32:23.275Z,14.98
2023-05-20T19:34:52.652Z,12.20
2023-05-20T19:37:22.898Z,13.45
2023-05-20T19:39:51.224Z,11.43
2023-05-20T19:42:19.236Z,15.02
2023-05-20T19:44:47.448Z,13.25
2023-05-20T19:47:15.768Z,14.25
2023-05-20T19:49:43.691Z,12.95
2023-05-20T19:52:13.016Z,19.55
2023-05-20T19:54:42.965Z,12.13
2023-05-20T19:57:11.324Z,12.65
2023-05-20T19:59:39.224Z,15.52
2023-05-20T20:02:07.828Z,15.43
2023-05-20T20:04:36.191Z,12.88
2023-05-20T20:07:04.250Z,13.35
2023-05-20T20:09:33.531Z,11.80
2023-05-20T20:12:02.722Z,12.15
2023-05-20T20:14:30.906Z,14.52
2023-05-20T20:16:59.791Z,15.13
2023-05-20T20:19:28.578Z,13.77
2023-05-20T20:21:58.210Z,12.45
2023-05-20T20:24:26.796Z,13.35
2023-05-20T20:26:56.980Z,14.93
2023-05-20T20:29:25.162Z,12.73
2023-05-20T20:31:53.273Z,16.55
2023-05-20T20:34:22.067Z,13.82
2023-05-20T20:36:51.300Z,12.55
2023-05-20T20:39:20.010Z,17.35
2023-05-20T20:41:50.529Z,13.98
2023-05-20T20:44:22.530Z,13.05
2023-05-20T20:46:51.621Z,11.23
2023-05-20T20:49:20.245Z,15.88
2023-05-20T20:51:48.760Z,12.68
2023-05-20T20:54:17.001Z,16.10
2023-05-20T20:56:47.224Z,17.88
2023-05-20T20:59:15.806Z,12.43
2023-05-20T21:01:45.708Z,13.77
2023-05-20T21:04:14.531Z,11.13
2023-05-20T21:06:45.928Z,15.00
2023-05-20T21:09:14.066Z,13.57
2023-05-20T21:11:43.013Z,18.20
2023-05-20T21:14:11.149Z,11.85
2023-05-20T21:16:39.598Z,14.05
2023-05-20T21:19:09.054Z,13.18
2023-05-20T21:21:37.071Z,12.60
2023-05-20T21:24:05.237Z,15.30
2023-05-20T21:26:33.135Z,13.65
2023-05-20T21:29:01.079Z,17.13
2023-05-20T21:31:29.077Z,14.40
2023-05-20T21:33:57.079Z,13.70
2023-05-20T21:36:26.385Z,12.80
2023-05-20T21:38:54.304Z,15.10
2023-05-20T21:41:23.491Z,12.32
2023-05-20T21:43:51.600Z,13.15
2023-05-20T21:46:19.545Z,13.07
2023-05-20T21:48:47.617Z,12.63
2023-05-20T21:51:15.753Z,13.90
2023-05-20T21:53:45.253Z,14.98
2023-05-20T21:56:13.186Z,13.13
2023-05-20T21:58:41.876Z,10.18
2023-05-20T22:01:10.244Z,11.82
2023-05-20T22:03:39.967Z,10.60
2023-05-20T22:06:08.239Z,11.50
2023-05-20T22:08:36.204Z,12.23
2023-05-20T22:11:07.284Z,10.63
2023-05-20T22:13:36.304Z,10.02
2023-05-20T22:16:05.121Z,10.73
2023-05-20T22:18:33.324Z,10.52
2023-05-20T22:21:01.408Z,11.20
2023-05-20T22:23:29.916Z,9.77
2023-05-20T22:25:58.216Z,12.43
2023-05-20T22:28:27.638Z,11.57
2023-05-20T22:30:55.874Z,10.02
2023-05-20T22:33:24.425Z,11.45
2023-05-20T22:35:53.530Z,10.82
2023-05-20T22:38:22.011Z,11.25
2023-05-20T22:40:49.933Z,9.88
2023-05-20T22:43:17.915Z,11.35
2023-05-20T22:45:47.261Z,14.48
2023-05-20T22:48:15.369Z,10.15
2023-05-20T22:50:43.293Z,10.25
2023-05-20T22:53:11.195Z,11.18
2023-05-20T22:55:39.654Z,9.13
2023-05-20T22:58:08.446Z,12.23
2023-05-20T23:00:36.444Z,12.90
2023-05-20T23:03:06.312Z,8.70
2023-05-20T23:05:34.436Z,10.65
2023-05-20T23:08:02.528Z,10.77
2023-05-20T23:10:30.631Z,9.18
2023-05-20T23:12:58.669Z,10.60
2023-05-20T23:15:27.701Z,12.05
2023-05-20T23:17:55.815Z,7.85
2023-05-20T23:20:25.733Z,12.95
2023-05-20T23:22:53.712Z,12.43
2023-05-20T23:25:22.017Z,8.98
2023-05-20T23:27:50.031Z,10.40
2023-05-20T23:30:18.022Z,9.85
2023-05-20T23:32:46.447Z,11.23
2023-05-20T23:35:14.415Z,9.30
2023-05-20T23:37:43.741Z,12.52
2023-05-20T23:40:12.284Z,9.13
2023-05-20T23:42:40.689Z,10.88
2023-05-20T23:45:09.500Z,10.40
2023-05-20T23:47:37.970Z,9.60
2023-05-20T23:50:06.555Z,10.10
2023-05-20T23:52:34.515Z,11.50
2023-05-20T23:55:03.827Z,11.82
2023-05-20T23:57:31.786Z,11.38
2023-05-20T23:59:59.764Z,12.15
